Time;durP1;ratioP1;P1;durP2;ratioP2;P2;SDS_P1;SDS_P2;PMS_P1;PMS_P2;Temp;Humidity;BMP_temperature;BMP_pressure;BME280_temperature;BME280_humidity;BME280_pressure;Samples;Min_cycle;Max_cycle;Signal;HPM_P1;HPM_P2
2022/12/26 00:02:03;;;;;;;15.20;8.63;;;;;;;;;;760717;182;919710;-62
2022/12/26 00:04:28;;;;;;;12.60;7.77;;;;;;;;;;768065;180;919643;-62
2022/12/26 00:06:54;;;;;;;21.03;8.50;;;;;;;;;;779778;180;918260;-62
2022/12/26 00:09:20;;;;;;;15.33;8.67;;;;;;;;;;773379;180;916631;-62
2022/12/26 00:11:46;;;;;;;13.10;8.90;;;;;;;;;;769817;181;919190;-63
2022/12/26 00:14:12;;;;;;;19.23;8.55;;;;;;;;;;766871;181;917804;-62
2022/12/26 00:16:38;;;;;;;18.10;8.50;;;;;;;;;;766001;181;906519;-62
2022/12/26 00:19:04;;;;;;;12.83;7.93;;;;;;;;;;769568;180;919341;-63
2022/12/26 00:21:30;;;;;;;12.07;8.27;;;;;;;;;;771071;180;886523;-62
2022/12/26 00:23:56;;;;;;;14.43;8.60;;;;;;;;;;769957;180;919010;-62
2022/12/26 00:26:22;;;;;;;26.10;11.93;;;;;;;;;;765934;180;918883;-63
2022/12/26 00:28:47;;;;;;;16.43;8.70;;;;;;;;;;771910;181;919214;-62
2022/12/26 00:31:14;;;;;;;25.77;12.90;;;;;;;;;;755768;183;916652;-63
2022/12/26 00:33:40;;;;;;;36.47;18.80;;;;;;;;;;772226;179;915191;-63
2022/12/26 00:36:06;;;;;;;21.33;12.80;;;;;;;;;;765866;181;823622;-62
2022/12/26 00:38:34;;;;;;;24.13;14.67;;;;;;;;;;763049;183;921801;-63
2022/12/26 00:41:00;;;;;;;21.23;13.17;;;;;;;;;;769339;180;923256;-62
2022/12/26 00:43:26;;;;;;;23.33;15.30;;;;;;;;;;759314;183;816037;-63
2022/12/26 00:45:52;;;;;;;31.33;17.80;;;;;;;;;;769573;182;818106;-62
2022/12/26 00:48:18;;;;;;;52.90;32.05;;;;;;;;;;769436;181;919359;-61
2022/12/26 00:50:43;;;;;;;37.77;22.00;;;;;;;;;;769143;181;919638;-62
2022/12/26 00:53:09;;;;;;;28.17;15.70;;;;;;;;;;761557;181;919844;-63
2022/12/26 00:55:35;;;;;;;26.43;16.23;;;;;;;;;;774615;180;917185;-62
2022/12/26 00:58:01;;;;;;;26.10;15.80;;;;;;;;;;763141;181;913151;-63
2022/12/26 01:00:27;;;;;;;21.90;15.00;;;;;;;;;;764850;181;916411;-61
2022/12/26 01:02:53;;;;;;;29.37;18.70;;;;;;;;;;771562;181;918543;-63
2022/12/26 01:05:19;;;;;;;34.08;22.05;;;;;;;;;;763078;180;925485;-61
2022/12/26 01:07:44;;;;;;;21.00;14.67;;;;;;;;;;769771;180;920923;-62
2022/12/26 01:10:10;;;;;;;29.03;17.00;;;;;;;;;;755857;183;914373;-63
2022/12/26 01:12:36;;;;;;;22.33;13.10;;;;;;;;;;772441;178;919556;-62
2022/12/26 01:15:02;;;;;;;21.62;14.27;;;;;;;;;;772005;180;915634;-62
2022/12/26 01:17:28;;;;;;;22.97;13.70;;;;;;;;;;764333;181;915081;-62
2022/12/26 01:19:54;;;;;;;20.13;11.57;;;;;;;;;;763584;184;918983;-63
2022/12/26 01:22:20;;;;;;;16.17;10.90;;;;;;;;;;767378;180;918743;-62
2022/12/26 01:24:46;;;;;;;18.77;10.83;;;;;;;;;;765090;181;919701;-62
2022/12/26 01:27:11;;;;;;;16.77;11.27;;;;;;;;;;765724;181;918140;-62
2022/12/26 01:29:37;;;;;;;14.40;9.30;;;;;;;;;;768995;181;814776;-63
2022/12/26 01:32:03;;;;;;;13.33;9.07;;;;;;;;;;770914;181;818478;-62
2022/12/26 01:34:29;;;;;;;15.60;8.30;;;;;;;;;;774842;181;918286;-62
2022/12/26 01:36:55;;;;;;;19.93;10.47;;;;;;;;;;756392;183;921265;-62
2022/12/26 01:39:21;;;;;;;13.10;10.17;;;;;;;;;;767022;181;918963;-62
2022/12/26 01:41:47;;;;;;;27.48;11.55;;;;;;;;;;775682;180;818565;-62
2022/12/26 01:44:29;;;;;;;14.57;9.33;;;;;;;;;;765284;183;906094;-62
2022/12/26 01:46:55;;;;;;;17.30;10.43;;;;;;;;;;773966;180;909972;-62
2022/12/26 01:49:21;;;;;;;15.27;9.03;;;;;;;;;;773541;180;918031;-63
2022/12/26 01:51:46;;;;;;;20.20;10.73;;;;;;;;;;766298;181;920795;-62
2022/12/26 01:54:12;;;;;;;16.83;10.20;;;;;;;;;;774183;180;918549;-63
2022/12/26 01:56:38;;;;;;;14.27;8.83;;;;;;;;;;760152;181;918619;-62
2022/12/26 01:59:05;;;;;;;17.47;11.03;;;;;;;;;;764070;181;918048;-63
2022/12/26 02:01:31;;;;;;;15.30;10.30;;;;;;;;;;776452;181;919171;-63
2022/12/26 02:06:28;;;;;;;15.57;9.30;;;;;;;;;;771607;181;920356;-63
2022/12/26 02:08:54;;;;;;;19.90;11.77;;;;;;;;;;770292;181;919468;-63
2022/12/26 02:11:20;;;;;;;16.40;9.60;;;;;;;;;;764530;183;917521;-63
2022/12/26 02:13:45;;;;;;;14.10;10.30;;;;;;;;;;765342;180;882230;-63
2022/12/26 02:16:11;;;;;;;13.80;11.40;;;;;;;;;;762534;180;919519;-63
2022/12/26 02:18:37;;;;;;;12.37;9.60;;;;;;;;;;774872;180;919403;-63
2022/12/26 02:21:07;;;;;;;12.50;9.50;;;;;;;;;;764611;181;816176;-62
2022/12/26 02:23:33;;;;;;;16.77;9.83;;;;;;;;;;761773;181;919356;-63
2022/12/26 02:26:13;;;;;;;13.77;9.60;;;;;;;;;;773649;180;846892;-63
2022/12/26 02:28:40;;;;;;;16.93;12.03;;;;;;;;;;759192;180;918284;-63
2022/12/26 02:31:06;;;;;;;17.73;10.40;;;;;;;;;;763505;183;915202;-62
2022/12/26 02:33:31;;;;;;;19.80;10.07;;;;;;;;;;770268;181;916551;-63
2022/12/26 02:36:00;;;;;;;20.40;10.65;;;;;;;;;;773228;181;891897;-62
2022/12/26 02:38:29;;;;;;;26.20;11.10;;;;;;;;;;775495;180;919384;-63
2022/12/26 02:40:55;;;;;;;17.83;11.30;;;;;;;;;;771811;180;919291;-63
2022/12/26 02:43:22;;;;;;;21.10;11.10;;;;;;;;;;770938;180;819974;-63
2022/12/26 02:48:38;;;;;;;20.27;11.63;;;;;;;;;;761159;179;917975;-63
2022/12/26 03:14:12;;;;;;;35.37;15.87;;;;;;;;;;766676;181;922841;-63
2022/12/26 03:19:10;;;;;;;26.42;14.95;;;;;;;;;;771024;180;919847;-63
2022/12/26 03:21:36;;;;;;;19.70;13.60;;;;;;;;;;753505;183;817619;-63
2022/12/26 03:24:02;;;;;;;21.07;14.20;;;;;;;;;;763726;182;918881;-63
2022/12/26 03:31:34;;;;;;;29.73;15.13;;;;;;;;;;762207;180;918865;-63
2022/12/26 03:36:35;;;;;;;33.43;15.30;;;;;;;;;;762075;180;917653;-63
2022/12/26 03:39:06;;;;;;;21.87;14.70;;;;;;;;;;772924;181;915358;-63
2022/12/26 04:20:13;;;;;;;21.50;14.83;;;;;;;;;;765449;183;845721;-63
2022/12/26 04:45:26;;;;;;;18.97;13.97;;;;;;;;;;753787;184;920046;-63
2022/12/26 04:50:24;;;;;;;20.33;14.27;;;;;;;;;;755633;183;923370;-63
2022/12/26 04:52:57;;;;;;;22.07;15.93;;;;;;;;;;769979;181;916259;-63
2022/12/26 04:55:20;;;;;;;24.90;16.10;;;;;;;;;;764852;184;919221;-63
2022/12/26 04:57:45;;;;;;;25.37;16.17;;;;;;;;;;767192;181;817467;-63
2022/12/26 05:00:11;;;;;;;21.80;15.15;;;;;;;;;;768931;180;918247;-63
2022/12/26 05:10:21;;;;;;;23.23;15.23;;;;;;;;;;766976;180;919537;-63
2022/12/26 05:12:47;;;;;;;19.70;14.13;;;;;;;;;;764312;181;923985;-63
2022/12/26 05:15:13;;;;;;;25.13;15.37;;;;;;;;;;770754;181;918192;-62
2022/12/26 05:30:18;;;;;;;24.93;17.07;;;;;;;;;;770808;180;816889;-63
2022/12/26 05:35:16;;;;;;;23.92;14.25;;;;;;;;;;768725;181;919343;-63
2022/12/26 05:37:42;;;;;;;22.47;13.60;;;;;;;;;;767701;183;919225;-63
2022/12/26 05:40:08;;;;;;;26.90;16.40;;;;;;;;;;766757;181;920100;-63
2022/12/26 05:42:34;;;;;;;22.70;15.47;;;;;;;;;;769329;180;919531;-63
2022/12/26 05:45:00;;;;;;;21.50;14.97;;;;;;;;;;768994;180;909424;-63
2022/12/26 05:47:26;;;;;;;23.83;14.33;;;;;;;;;;767559;181;914533;-63
2022/12/26 05:49:51;;;;;;;21.50;14.10;;;;;;;;;;770875;180;892389;-63
2022/12/26 05:52:17;;;;;;;20.27;13.20;;;;;;;;;;772613;180;820638;-62
2022/12/26 05:54:43;;;;;;;21.93;15.27;;;;;;;;;;765926;180;919652;-63
2022/12/26 05:57:09;;;;;;;22.20;14.97;;;;;;;;;;763027;181;1023616;-63
2022/12/26 05:59:35;;;;;;;21.57;13.70;;;;;;;;;;776143;178;923378;-62
2022/12/26 06:02:01;;;;;;;24.60;16.60;;;;;;;;;;771550;180;914235;-62
2022/12/26 06:04:28;;;;;;;23.60;14.43;;;;;;;;;;767926;180;919214;-62
2022/12/26 06:06:55;;;;;;;21.27;14.03;;;;;;;;;;770560;180;918049;-62
2022/12/26 06:09:19;;;;;;;24.57;15.00;;;;;;;;;;770632;181;918816;-62
2022/12/26 06:11:45;;;;;;;22.77;15.23;;;;;;;;;;758603;182;919394;-62
2022/12/26 06:14:11;;;;;;;21.83;14.77;;;;;;;;;;768645;180;817059;-62
2022/12/26 06:16:36;;;;;;;23.27;14.60;;;;;;;;;;773297;180;823325;-63
2022/12/26 06:19:03;;;;;;;20.77;14.23;;;;;;;;;;769390;180;922524;-62
2022/12/26 06:21:30;;;;;;;25.40;13.93;;;;;;;;;;768862;180;920336;-62
2022/12/26 06:23:56;;;;;;;23.70;14.17;;;;;;;;;;767794;182;716303;-62
2022/12/26 06:26:21;;;;;;;23.23;15.83;;;;;;;;;;760018;183;916775;-62
2022/12/26 06:28:47;;;;;;;34.30;16.97;;;;;;;;;;768632;180;918571;-62
2022/12/26 06:31:13;;;;;;;24.60;17.13;;;;;;;;;;765240;181;852655;-62
2022/12/26 06:33:39;;;;;;;24.93;15.70;;;;;;;;;;777125;181;919708;-62
2022/12/26 06:36:06;;;;;;;23.77;15.43;;;;;;;;;;771074;181;919566;-62
2022/12/26 06:38:32;;;;;;;33.83;16.77;;;;;;;;;;765828;181;939837;-62
2022/12/26 06:40:58;;;;;;;30.77;16.20;;;;;;;;;;771526;180;811534;-62
2022/12/26 06:43:24;;;;;;;29.20;15.70;;;;;;;;;;765583;180;915306;-63
2022/12/26 06:45:57;;;;;;;24.23;16.30;;;;;;;;;;767954;181;827721;-62
2022/12/26 06:48:23;;;;;;;31.63;17.73;;;;;;;;;;768930;181;919209;-62
2022/12/26 06:50:49;;;;;;;22.87;16.10;;;;;;;;;;774386;180;729429;-61
2022/12/26 06:53:15;;;;;;;26.43;16.80;;;;;;;;;;771200;181;712751;-62
2022/12/26 06:55:40;;;;;;;24.07;16.57;;;;;;;;;;767030;181;920277;-62
2022/12/26 06:58:06;;;;;;;27.30;16.90;;;;;;;;;;775333;181;844471;-62
2022/12/26 07:00:32;;;;;;;26.40;16.83;;;;;;;;;;766121;180;916047;-62
2022/12/26 07:02:58;;;;;;;27.53;15.40;;;;;;;;;;765712;181;905628;-62
2022/12/26 07:05:24;;;;;;;26.23;17.97;;;;;;;;;;771439;181;920340;-61
2022/12/26 07:07:50;;;;;;;25.43;16.60;;;;;;;;;;763827;181;919508;-61
2022/12/26 07:10:16;;;;;;;28.30;16.83;;;;;;;;;;767692;180;898775;-61
2022/12/26 07:12:41;;;;;;;28.10;17.43;;;;;;;;;;769935;180;816045;-64
2022/12/26 07:15:09;;;;;;;27.13;16.77;;;;;;;;;;774186;180;816746;-61
2022/12/26 07:17:33;;;;;;;24.80;17.20;;;;;;;;;;770703;180;893348;-62
2022/12/26 07:19:59;;;;;;;24.63;16.57;;;;;;;;;;767868;180;919621;-62
2022/12/26 07:22:26;;;;;;;27.90;16.73;;;;;;;;;;776342;180;861607;-61
2022/12/26 07:24:52;;;;;;;24.77;16.33;;;;;;;;;;760316;183;817143;-61
2022/12/26 07:27:17;;;;;;;25.98;17.33;;;;;;;;;;763187;182;919131;-61
2022/12/26 07:29:43;;;;;;;23.40;15.47;;;;;;;;;;765910;182;928457;-62
2022/12/26 07:32:10;;;;;;;25.67;15.60;;;;;;;;;;760624;182;919664;-62
2022/12/26 07:34:36;;;;;;;24.77;16.40;;;;;;;;;;728617;188;919309;-61
2022/12/26 07:37:02;;;;;;;29.33;16.70;;;;;;;;;;759985;183;872857;-61
2022/12/26 07:39:28;;;;;;;27.23;16.17;;;;;;;;;;767223;181;915544;-62
2022/12/26 07:41:56;;;;;;;24.43;16.63;;;;;;;;;;767629;178;910737;-62
2022/12/26 07:44:22;;;;;;;23.87;14.80;;;;;;;;;;765432;180;915245;-62
2022/12/26 07:46:48;;;;;;;27.17;17.10;;;;;;;;;;773978;181;746121;-62
2022/12/26 07:49:14;;;;;;;24.10;15.80;;;;;;;;;;768575;180;917713;-62
2022/12/26 07:51:40;;;;;;;23.80;15.57;;;;;;;;;;760240;182;921605;-62
2022/12/26 07:54:06;;;;;;;21.57;15.00;;;;;;;;;;763581;183;817293;-62
2022/12/26 07:56:32;;;;;;;20.53;14.67;;;;;;;;;;750676;187;915379;-63
2022/12/26 07:58:57;;;;;;;31.10;16.90;;;;;;;;;;746118;187;918888;-62
2022/12/26 08:01:23;;;;;;;26.60;16.57;;;;;;;;;;747885;182;923537;-62
2022/12/26 08:03:49;;;;;;;25.35;17.90;;;;;;;;;;766499;182;917710;-61
2022/12/26 08:06:15;;;;;;;23.63;16.23;;;;;;;;;;759284;183;919896;-61
2022/12/26 08:08:41;;;;;;;24.67;16.73;;;;;;;;;;759855;183;820514;-61
2022/12/26 08:11:07;;;;;;;27.97;18.07;;;;;;;;;;756465;184;856155;-61
2022/12/26 08:13:33;;;;;;;33.50;18.60;;;;;;;;;;766103;181;918588;-61
2022/12/26 08:15:59;;;;;;;26.97;17.37;;;;;;;;;;772000;180;920156;-62
2022/12/26 08:18:24;;;;;;;26.05;18.10;;;;;;;;;;769232;182;919208;-62
2022/12/26 08:20:50;;;;;;;27.87;19.00;;;;;;;;;;770728;178;917050;-62
2022/12/26 08:23:16;;;;;;;27.40;18.07;;;;;;;;;;770197;180;905057;-62
2022/12/26 08:25:42;;;;;;;26.80;18.43;;;;;;;;;;771458;180;919427;-62
2022/12/26 08:28:08;;;;;;;31.43;19.67;;;;;;;;;;777859;180;919304;-62
2022/12/26 08:30:33;;;;;;;25.53;17.07;;;;;;;;;;769636;180;919567;-61
2022/12/26 08:32:59;;;;;;;21.20;15.87;;;;;;;;;;763537;181;914472;-62
2022/12/26 08:35:25;;;;;;;25.80;16.23;;;;;;;;;;772170;180;916633;-62
2022/12/26 08:37:51;;;;;;;20.13;13.77;;;;;;;;;;768562;180;723802;-62
2022/12/26 08:40:17;;;;;;;24.70;14.50;;;;;;;;;;770738;180;918839;-61
2022/12/26 08:42:43;;;;;;;22.30;14.82;;;;;;;;;;770320;180;916966;-63
2022/12/26 08:45:09;;;;;;;21.00;15.17;;;;;;;;;;766927;180;823132;-61
2022/12/26 08:47:34;;;;;;;19.93;13.90;;;;;;;;;;763493;182;891842;-62
2022/12/26 08:50:00;;;;;;;23.53;16.20;;;;;;;;;;768204;181;917988;-62
2022/12/26 08:52:26;;;;;;;27.97;16.57;;;;;;;;;;762702;184;716058;-62
2022/12/26 08:54:52;;;;;;;25.73;15.50;;;;;;;;;;768548;182;816990;-62
2022/12/26 08:57:18;;;;;;;25.57;15.17;;;;;;;;;;770385;180;918718;-62
2022/12/26 08:59:44;;;;;;;26.50;16.47;;;;;;;;;;776466;181;905909;-62
2022/12/26 09:02:09;;;;;;;20.60;14.20;;;;;;;;;;769964;180;919151;-62
2022/12/26 09:04:36;;;;;;;21.40;14.90;;;;;;;;;;771428;181;821143;-62
2022/12/26 09:07:01;;;;;;;23.35;16.25;;;;;;;;;;774838;180;913962;-62
2022/12/26 09:09:27;;;;;;;18.90;15.50;;;;;;;;;;756717;183;916003;-63
2022/12/26 09:11:53;;;;;;;24.87;16.20;;;;;;;;;;760272;183;659962;-63
2022/12/26 09:14:19;;;;;;;22.80;15.57;;;;;;;;;;772628;181;699202;-62
2022/12/26 09:16:45;;;;;;;22.53;18.07;;;;;;;;;;768732;182;913714;-62
2022/12/26 09:19:11;;;;;;;21.17;15.93;;;;;;;;;;767770;181;914371;-62
2022/12/26 09:21:37;;;;;;;20.27;16.17;;;;;;;;;;765698;181;921244;-63
2022/12/26 09:24:03;;;;;;;23.50;15.80;;;;;;;;;;775355;181;919289;-63
2022/12/26 09:26:29;;;;;;;20.33;16.40;;;;;;;;;;768368;181;918139;-62
2022/12/26 09:28:55;;;;;;;22.15;14.40;;;;;;;;;;767709;180;918384;-63
2022/12/26 09:31:21;;;;;;;22.80;15.57;;;;;;;;;;772871;180;817639;-62
2022/12/26 09:33:46;;;;;;;17.77;13.27;;;;;;;;;;768311;180;920446;-62
2022/12/26 09:36:12;;;;;;;21.20;14.90;;;;;;;;;;773732;180;920059;-62
2022/12/26 09:38:38;;;;;;;17.73;13.73;;;;;;;;;;771734;180;926741;-64
2022/12/26 09:41:24;;;;;;;21.00;13.80;;;;;;;;;;760138;180;919408;-62
2022/12/26 09:44:05;;;;;;;21.23;15.97;;;;;;;;;;772909;183;818523;-62
2022/12/26 09:46:47;;;;;;;19.97;15.57;;;;;;;;;;763427;181;815874;-63
2022/12/26 09:49:12;;;;;;;17.87;14.30;;;;;;;;;;766996;182;919154;-62
2022/12/26 09:51:38;;;;;;;25.70;15.37;;;;;;;;;;767859;180;918514;-62
2022/12/26 09:54:04;;;;;;;18.10;14.32;;;;;;;;;;766675;180;919603;-64
2022/12/26 09:56:30;;;;;;;23.40;15.10;;;;;;;;;;774054;180;817387;-62
2022/12/26 09:58:56;;;;;;;22.03;15.37;;;;;;;;;;773397;181;919158;-63
2022/12/26 10:01:22;;;;;;;22.30;14.60;;;;;;;;;;770164;180;917903;-63
2022/12/26 10:03:48;;;;;;;18.60;14.00;;;;;;;;;;771591;181;623733;-64
2022/12/26 10:06:15;;;;;;;24.60;15.93;;;;;;;;;;773974;180;629962;-64
2022/12/26 10:08:42;;;;;;;17.23;12.93;;;;;;;;;;770422;181;625844;-64
2022/12/26 10:11:08;;;;;;;21.00;14.20;;;;;;;;;;774400;180;631183;-62
2022/12/26 10:13:39;;;;;;;19.03;13.93;;;;;;;;;;771154;181;630561;-64
2022/12/26 10:16:04;;;;;;;18.43;12.87;;;;;;;;;;769448;181;627117;-62
2022/12/26 10:18:32;;;;;;;18.33;11.97;;;;;;;;;;770042;180;625162;-64
2022/12/26 10:21:03;;;;;;;15.93;11.97;;;;;;;;;;777738;180;626951;-64
2022/12/26 10:23:31;;;;;;;15.87;12.93;;;;;;;;;;773354;182;637429;-62
2022/12/26 10:25:58;;;;;;;15.67;12.17;;;;;;;;;;768708;180;912215;-62
2022/12/26 10:28:29;;;;;;;22.00;15.70;;;;;;;;;;766213;181;918076;-65
2022/12/26 10:30:55;;;;;;;18.00;12.47;;;;;;;;;;768272;181;914946;-64
2022/12/26 10:33:39;;;;;;;17.87;14.00;;;;;;;;;;767437;183;624864;-64
2022/12/26 10:36:05;;;;;;;15.50;10.97;;;;;;;;;;771035;183;627235;-64
2022/12/26 10:38:35;;;;;;;20.90;14.10;;;;;;;;;;772217;180;623258;-64
2022/12/26 10:41:04;;;;;;;17.50;13.60;;;;;;;;;;772277;181;624559;-64
2022/12/26 10:43:29;;;;;;;19.50;15.00;;;;;;;;;;780220;180;614974;-62
2022/12/26 10:45:57;;;;;;;15.33;11.40;;;;;;;;;;772125;179;635286;-64
2022/12/26 10:51:16;;;;;;;16.00;11.10;;;;;;;;;;772778;180;629179;-65
2022/12/26 10:53:42;;;;;;;14.87;11.10;;;;;;;;;;772096;181;666495;-62
2022/12/26 10:56:08;;;;;;;14.97;10.80;;;;;;;;;;776121;180;624489;-64
2022/12/26 10:58:34;;;;;;;15.07;10.87;;;;;;;;;;774302;180;626898;-62
2022/12/26 11:01:16;;;;;;;13.93;10.00;;;;;;;;;;777047;180;625154;-65
2022/12/26 11:03:41;;;;;;;14.77;9.33;;;;;;;;;;771257;182;615984;-63
2022/12/26 11:06:07;;;;;;;13.87;9.20;;;;;;;;;;766051;183;816462;-65
2022/12/26 11:08:34;;;;;;;12.60;9.57;;;;;;;;;;768836;180;815444;-63
2022/12/26 11:11:02;;;;;;;12.93;9.70;;;;;;;;;;769645;183;918269;-63
2022/12/26 11:13:27;;;;;;;10.87;8.53;;;;;;;;;;770425;183;893233;-63
2022/12/26 11:15:53;;;;;;;14.77;10.67;;;;;;;;;;770005;180;919748;-65
2022/12/26 11:18:20;;;;;;;16.10;9.93;;;;;;;;;;768731;181;910247;-66
2022/12/26 11:20:46;;;;;;;18.70;12.23;;;;;;;;;;773878;181;870931;-63
2022/12/26 11:23:12;;;;;;;13.70;10.40;;;;;;;;;;771112;180;616835;-65
2022/12/26 11:25:38;;;;;;;16.53;12.03;;;;;;;;;;769737;181;626715;-63
2022/12/26 11:28:03;;;;;;;15.20;11.63;;;;;;;;;;772631;181;624009;-63
2022/12/26 11:30:29;;;;;;;19.60;11.40;;;;;;;;;;768328;180;636931;-63
2022/12/26 11:33:01;;;;;;;16.60;11.60;;;;;;;;;;770848;181;629288;-63
2022/12/26 11:35:33;;;;;;;19.97;13.63;;;;;;;;;;771288;180;640522;-64
2022/12/26 11:38:01;;;;;;;21.50;13.00;;;;;;;;;;782522;176;53822;-80
2022/12/26 11:40:37;;;;;;;14.60;11.80;;;;;;;;;;747884;182;4385412;-81
2022/12/26 11:43:03;;;;;;;18.50;12.33;;;;;;;;;;746622;186;1451235;-81
2022/12/26 11:45:29;;;;;;;19.93;11.80;;;;;;;;;;768144;182;700098;-81
2022/12/26 11:47:54;;;;;;;17.37;12.53;;;;;;;;;;775740;182;631986;-81
2022/12/26 11:50:20;;;;;;;16.53;11.80;;;;;;;;;;767416;180;641703;-82
2022/12/26 11:52:51;;;;;;;16.40;12.03;;;;;;;;;;768082;181;637843;-81
2022/12/26 11:55:24;;;;;;;19.80;11.70;;;;;;;;;;771912;182;638501;-80
2022/12/26 11:57:56;;;;;;;15.60;11.73;;;;;;;;;;773522;182;632653;-81
2022/12/26 12:00:23;;;;;;;18.13;11.43;;;;;;;;;;768944;182;627294;-81
2022/12/26 12:02:48;;;;;;;17.00;11.87;;;;;;;;;;770340;182;653232;-81
2022/12/26 12:05:15;;;;;;;17.27;11.90;;;;;;;;;;769059;182;632196;-80
2022/12/26 12:07:46;;;;;;;15.00;11.97;;;;;;;;;;775122;182;624115;-82
2022/12/26 12:10:20;;;;;;;20.43;12.40;;;;;;;;;;770898;182;633069;-81
2022/12/26 12:12:49;;;;;;;20.83;11.63;;;;;;;;;;770620;182;639583;-82
2022/12/26 12:15:16;;;;;;;19.67;12.40;;;;;;;;;;767853;181;678447;-81
2022/12/26 12:17:45;;;;;;;18.27;12.40;;;;;;;;;;774577;180;635637;-80
2022/12/26 12:20:23;;;;;;;19.13;13.00;;;;;;;;;;775633;182;631824;-82
2022/12/26 12:22:51;;;;;;;19.40;12.60;;;;;;;;;;767409;180;647738;-81
2022/12/26 12:25:17;;;;;;;20.53;13.57;;;;;;;;;;769150;180;628422;-79
2022/12/26 12:27:56;;;;;;;23.00;14.23;;;;;;;;;;767934;182;632846;-81
2022/12/26 12:30:22;;;;;;;21.40;14.57;;;;;;;;;;762850;182;1198091;-77
2022/12/26 12:33:03;;;;;;;19.80;13.00;;;;;;;;;;760299;183;638545;-80
2022/12/26 12:35:30;;;;;;;24.50;15.30;;;;;;;;;;765171;182;625001;-81
2022/12/26 12:38:10;;;;;;;24.47;14.83;;;;;;;;;;765032;181;625590;-82
2022/12/26 12:40:37;;;;;;;20.37;13.83;;;;;;;;;;769619;180;639409;-81
2022/12/26 12:43:18;;;;;;;17.77;12.43;;;;;;;;;;768074;182;628337;-79
2022/12/26 12:45:45;;;;;;;21.93;11.90;;;;;;;;;;766288;182;635016;-80
2022/12/26 12:48:14;;;;;;;18.47;13.63;;;;;;;;;;772500;182;628464;-79
2022/12/26 12:50:56;;;;;;;20.80;14.43;;;;;;;;;;767344;182;850166;-81
2022/12/26 12:53:26;;;;;;;25.30;15.73;;;;;;;;;;765501;182;635717;-80
2022/12/26 12:56:09;;;;;;;25.63;17.10;;;;;;;;;;768626;182;614281;-80
2022/12/26 12:58:50;;;;;;;29.77;17.20;;;;;;;;;;768503;182;626589;-79
2022/12/26 13:01:17;;;;;;;28.83;17.40;;;;;;;;;;768710;182;641711;-82
2022/12/26 13:03:48;;;;;;;27.13;17.60;;;;;;;;;;768086;182;649333;-81
2022/12/26 13:06:14;;;;;;;26.67;16.23;;;;;;;;;;777009;180;624937;-81
2022/12/26 13:08:40;;;;;;;26.33;17.70;;;;;;;;;;772391;179;641809;-82
2022/12/26 13:11:21;;;;;;;29.63;18.20;;;;;;;;;;775060;180;636327;-80
2022/12/26 13:13:50;;;;;;;29.83;19.60;;;;;;;;;;774038;181;634848;-80
2022/12/26 13:16:16;;;;;;;23.10;16.67;;;;;;;;;;771431;182;631818;-80
2022/12/26 13:18:42;;;;;;;22.43;16.00;;;;;;;;;;766874;180;659696;-80
2022/12/26 13:21:07;;;;;;;25.00;16.70;;;;;;;;;;769428;180;614340;-81
2022/12/26 13:26:06;;;;;;;25.63;16.87;;;;;;;;;;777135;181;635116;-83
2022/12/26 13:28:32;;;;;;;19.23;12.87;;;;;;;;;;769101;181;633662;-82
2022/12/26 13:30:57;;;;;;;21.30;13.80;;;;;;;;;;767275;182;792536;-82
2022/12/26 13:33:23;;;;;;;25.67;13.10;;;;;;;;;;763643;182;633423;-81
2022/12/26 13:35:51;;;;;;;22.83;14.63;;;;;;;;;;769140;180;632791;-81
2022/12/26 13:38:16;;;;;;;24.30;14.23;;;;;;;;;;772143;182;637157;-80
2022/12/26 13:43:53;;;;;;;26.57;16.13;;;;;;;;;;770246;181;631406;-81
2022/12/26 13:45:57;;;;;;;25.47;15.67;;;;;;;;;;771065;182;627653;-78
2022/12/26 13:48:41;;;;;;;32.93;16.53;;;;;;;;;;768573;180;630380;-80
2022/12/26 13:51:06;;;;;;;24.87;15.83;;;;;;;;;;769315;181;636207;-79
2022/12/26 13:53:37;;;;;;;25.07;16.20;;;;;;;;;;769625;180;641738;-81
2022/12/26 13:56:03;;;;;;;25.40;16.37;;;;;;;;;;767669;180;636661;-81
2022/12/26 13:58:34;;;;;;;29.93;16.13;;;;;;;;;;772483;180;637149;-81
2022/12/26 14:01:01;;;;;;;25.73;15.80;;;;;;;;;;766603;182;718030;-80
2022/12/26 14:03:27;;;;;;;26.27;16.90;;;;;;;;;;768577;182;614875;-79
2022/12/26 14:05:58;;;;;;;27.37;17.43;;;;;;;;;;766704;182;637340;-80
2022/12/26 14:08:28;;;;;;;20.77;14.17;;;;;;;;;;754054;186;644882;-81
2022/12/26 14:10:53;;;;;;;19.03;13.67;;;;;;;;;;768201;182;659097;-80
2022/12/26 14:13:26;;;;;;;19.73;13.00;;;;;;;;;;757198;182;680173;-64
2022/12/26 14:15:52;;;;;;;19.77;12.97;;;;;;;;;;736915;189;817455;-64
2022/12/26 14:18:18;;;;;;;24.33;12.63;;;;;;;;;;737943;190;629666;-65
2022/12/26 14:20:44;;;;;;;26.10;15.17;;;;;;;;;;731603;191;630977;-67
2022/12/26 14:23:16;;;;;;;23.03;14.27;;;;;;;;;;729675;192;638852;-67
2022/12/26 14:25:45;;;;;;;19.53;14.50;;;;;;;;;;730281;193;627659;-65
2022/12/26 14:28:13;;;;;;;20.90;15.30;;;;;;;;;;735803;190;626428;-68
2022/12/26 14:30:40;;;;;;;19.77;13.10;;;;;;;;;;728923;193;625212;-64
2022/12/26 14:33:21;;;;;;;18.03;11.70;;;;;;;;;;726455;193;627985;-69
2022/12/26 14:35:53;;;;;;;18.03;11.77;;;;;;;;;;724477;193;653227;-64
2022/12/26 14:38:24;;;;;;;23.23;13.53;;;;;;;;;;732601;190;628889;-67
2022/12/26 14:40:56;;;;;;;20.07;13.10;;;;;;;;;;735877;190;624117;-68
2022/12/26 14:43:23;;;;;;;20.17;10.93;;;;;;;;;;729329;193;643815;-65
2022/12/26 14:45:50;;;;;;;19.00;11.90;;;;;;;;;;727661;193;630036;-65
2022/12/26 14:48:30;;;;;;;19.40;13.40;;;;;;;;;;729026;193;633662;-65
2022/12/26 14:51:09;;;;;;;19.33;12.52;;;;;;;;;;723507;193;919871;-65
2022/12/26 14:53:34;;;;;;;20.33;14.00;;;;;;;;;;727259;191;920268;-64
2022/12/26 14:56:15;;;;;;;18.37;12.50;;;;;;;;;;728703;193;919093;-68
2022/12/26 14:58:49;;;;;;;22.53;12.30;;;;;;;;;;723375;193;919679;-67
2022/12/26 15:01:30;;;;;;;17.00;12.07;;;;;;;;;;729500;193;816878;-65
2022/12/26 15:04:12;;;;;;;18.47;11.90;;;;;;;;;;722076;193;912719;-68
2022/12/26 15:06:43;;;;;;;24.03;13.07;;;;;;;;;;728146;193;909883;-64
2022/12/26 15:09:10;;;;;;;19.00;12.07;;;;;;;;;;729117;192;921651;-67
2022/12/26 15:11:37;;;;;;;19.03;13.17;;;;;;;;;;724777;193;919159;-65
2022/12/26 15:14:14;;;;;;;21.30;13.60;;;;;;;;;;730200;193;717231;-64
2022/12/26 15:16:47;;;;;;;20.40;12.70;;;;;;;;;;729235;193;917833;-65
2022/12/26 15:19:31;;;;;;;20.97;14.00;;;;;;;;;;724198;193;920602;-64
2022/12/26 15:21:59;;;;;;;21.30;13.70;;;;;;;;;;683048;193;913890;-68
2022/12/26 15:24:30;;;;;;;23.20;13.73;;;;;;;;;;703226;197;919023;-64
2022/12/26 15:27:11;;;;;;;22.57;15.30;;;;;;;;;;704320;197;918305;-68
2022/12/26 15:29:47;;;;;;;24.13;15.10;;;;;;;;;;698759;197;897293;-68
2022/12/26 15:32:14;;;;;;;24.33;15.90;;;;;;;;;;707534;196;927552;-68
2022/12/26 15:34:39;;;;;;;23.60;15.10;;;;;;;;;;712421;197;917183;-65
2022/12/26 15:37:06;;;;;;;26.33;16.23;;;;;;;;;;706141;197;918782;-64
2022/12/26 15:39:35;;;;;;;23.67;14.87;;;;;;;;;;708973;197;918889;-68
2022/12/26 15:42:07;;;;;;;28.40;17.23;;;;;;;;;;702520;196;816679;-64
2022/12/26 15:44:33;;;;;;;23.53;16.17;;;;;;;;;;714569;197;817895;-69
2022/12/26 15:47:03;;;;;;;24.30;15.67;;;;;;;;;;708953;197;917108;-64
2022/12/26 15:49:31;;;;;;;31.23;16.97;;;;;;;;;;705530;197;917900;-63
2022/12/26 15:52:12;;;;;;;24.20;15.23;;;;;;;;;;707295;197;919336;-67
2022/12/26 15:54:43;;;;;;;24.87;14.97;;;;;;;;;;712661;196;915310;-63
2022/12/26 15:57:11;;;;;;;21.43;12.80;;;;;;;;;;712934;196;921468;-67
2022/12/26 15:59:40;;;;;;;20.55;13.35;;;;;;;;;;708082;197;919008;-68
2022/12/26 16:02:07;;;;;;;27.13;16.97;;;;;;;;;;707903;197;919215;-68
2022/12/26 16:04:34;;;;;;;25.70;18.60;;;;;;;;;;710633;197;929649;-69
2022/12/26 16:07:15;;;;;;;29.00;18.47;;;;;;;;;;707335;197;920369;-69
2022/12/26 16:09:41;;;;;;;27.57;16.57;;;;;;;;;;706705;197;921433;-69
2022/12/26 16:12:13;;;;;;;28.00;17.17;;;;;;;;;;706735;197;918276;-68
2022/12/26 16:14:39;;;;;;;26.17;17.20;;;;;;;;;;708167;196;827350;-62
2022/12/26 16:17:09;;;;;;;24.37;16.30;;;;;;;;;;711020;196;914882;-63
2022/12/26 16:19:35;;;;;;;29.10;17.90;;;;;;;;;;707564;197;892732;-63
2022/12/26 16:24:34;;;;;;;31.30;17.93;;;;;;;;;;708231;196;918971;-68
2022/12/26 16:27:00;;;;;;;27.00;15.97;;;;;;;;;;712289;197;914047;-63